createdAt,value
2023-04-18T00:01:07.028Z,6.9
2023-04-18T00:16:41.281Z,6.8
2023-04-18T00:32:15.414Z,6.5
2023-04-18T00:47:49.758Z,6.4
2023-04-18T01:03:24.886Z,6.2
2023-04-18T01:18:58.876Z,6.3
2023-04-18T01:34:32.816Z,6.2
2023-04-18T01:50:06.791Z,6.1
2023-04-18T02:05:40.714Z,6.2
2023-04-18T02:21:14.686Z,6.1
2023-04-18T02:36:48.655Z,6.1
2023-04-18T02:52:22.709Z,6.1
2023-04-18T03:07:56.764Z,6
2023-04-18T03:23:30.881Z,6.1
2023-04-18T03:39:04.852Z,6.2
2023-04-18T03:54:39.168Z,6.2
2023-04-18T04:10:13.293Z,6.2
2023-04-18T04:25:47.217Z,6.5
2023-04-18T04:41:21.175Z,6.9
2023-04-18T04:56:55.166Z,7.2
2023-04-18T05:12:29.138Z,7.5
2023-04-18T05:28:03.194Z,7.6
2023-04-18T05:43:37.406Z,7.8
2023-04-18T05:59:11.458Z,7.8
2023-04-18T06:14:45.510Z,7.6
2023-04-18T06:30:19.694Z,7.6
2023-04-18T06:45:53.927Z,7.7
2023-04-18T07:01:28.647Z,7.9
2023-04-18T07:17:04.023Z,8.1
2023-04-18T07:32:38.222Z,8.5
2023-04-18T07:48:12.666Z,8.6
2023-04-18T08:03:48.166Z,9
2023-04-18T08:19:22.432Z,9.2
2023-04-18T08:34:56.600Z,9.1
2023-04-18T08:50:30.905Z,8.9
2023-04-18T09:06:05.333Z,8.9
2023-04-18T09:21:39.312Z,9
2023-04-18T09:37:14.283Z,9.1
2023-04-18T09:52:48.824Z,9.2
2023-04-18T10:08:22.946Z,9.4
2023-04-18T10:23:57.076Z,9.4
2023-04-18T10:39:31.508Z,9.5
2023-04-18T10:55:05.898Z,9.2
2023-04-18T11:10:40.135Z,9.3
2023-04-18T11:26:14.226Z,9.6
2023-04-18T11:41:48.330Z,9.7
2023-04-18T11:57:22.391Z,9.8
2023-04-18T12:12:56.465Z,9.8
2023-04-18T12:28:30.747Z,9.8
2023-04-18T12:44:04.815Z,10.3
2023-04-18T12:59:39.042Z,10.2
2023-04-18T13:15:13.398Z,10.3
2023-04-18T13:30:47.469Z,10.1
2023-04-18T13:46:21.894Z,10.2
2023-04-18T14:01:56.667Z,10.4
2023-04-18T14:17:30.894Z,10.2
2023-04-18T14:33:05.189Z,10.2
2023-04-18T14:48:39.285Z,10.2
2023-04-18T15:04:15.850Z,10
2023-04-18T15:19:50.406Z,9.9
2023-04-18T15:35:24.666Z,9.9
2023-04-18T15:51:00.724Z,9.5
2023-04-18T16:06:34.728Z,9.4
2023-04-18T16:22:08.833Z,9.4
2023-04-18T16:37:42.848Z,9.4
2023-04-18T16:53:16.913Z,9.4
2023-04-18T17:08:51.078Z,9.4
2023-04-18T17:24:25.083Z,9.4
2023-04-18T17:39:59.110Z,9.2
2023-04-18T17:55:33.087Z,9.4
2023-04-18T18:11:07.279Z,9.4
2023-04-18T18:26:41.589Z,9.4
2023-04-18T18:42:15.608Z,9
2023-04-18T18:57:49.648Z,9.2
2023-04-18T19:13:23.694Z,9.2
2023-04-18T19:28:57.746Z,9.2
2023-04-18T19:44:31.869Z,9.3
2023-04-18T20:00:05.918Z,9.4
2023-04-18T20:15:39.923Z,9.3
2023-04-18T20:31:14.742Z,9
2023-04-18T20:46:48.951Z,8.6
2023-04-18T21:02:23.605Z,8.6
2023-04-18T21:17:57.974Z,8.5
2023-04-18T21:33:32.087Z,8.5
2023-04-18T21:49:06.183Z,8.6
2023-04-18T22:04:40.676Z,8.6
2023-04-18T22:20:14.666Z,8.6
2023-04-18T22:35:49.023Z,8.7
2023-04-18T22:51:22.970Z,8.7
2023-04-18T23:06:57.038Z,8.8
2023-04-18T23:22:31.182Z,8.8
2023-04-18T23:38:05.297Z,8.9
2023-04-18T23:53:39.261Z,9
